Jaroso, Colorado
Current Conditions -  °F | °C
As of 2:52 PM on Wednesday 22 Oct 2014 (Local Time) from KALS Reporting Station
Overcast Overcast  
Wind Chill: 63°   Ceiling: 9500
Heat Index: 63°   Visibility: 10mi
Dew Point: 28°   Wind: 6mph
Humidity: 27%   Direction: 20°NNE
Pressure: 30.18"   Gusts: NA
Location:  37°N, 105.63°W
Report Text: KALS 222052Z AUTO 02005KT 10SM OVC095 17/M02 A3018 RMK AO2 SLP160 T01721022 56020
Loading
Personal Weather Stations






























Interactive Weather Map
Tropical Storm Tracking
New forecast layout! Learn more

10-Day Weather Forecast

Advertisements
Track Severe Weather on mobile